Time;durP1;ratioP1;P1;durP2;ratioP2;P2;SDS_P1;SDS_P2;PMS_P1;PMS_P2;Temp;Humidity;BMP_temperature;BMP_pressure;BME280_temperature;BME280_humidity;BME280_pressure;Samples;Min_cycle;Max_cycle;Signal;HPM_P1;HPM_P2
2022/09/24 00:01:46;;;;;;;;;;;20.30;88.20;;;;;;5074211;28;19931;-67
2022/09/24 00:04:11;;;;;;;;;;;20.20;88.10;;;;;;5068752;28;20286;-67
2022/09/24 00:06:41;;;;;;;;;;;20.10;88.10;;;;;;5065861;28;19935;-64
2022/09/24 00:09:07;;;;;;;;;;;20.00;88.10;;;;;;5055014;28;19925;-66
2022/09/24 00:11:33;;;;;;;;;;;;;;;;;;5054133;28;19925;-67
2022/09/24 00:13:58;;;;;;;;;;;20.20;88.20;;;;;;5072749;28;19938;-66
2022/09/24 00:16:25;;;;;;;;;;;20.20;88.20;;;;;;5074718;28;20308;-67
2022/09/24 00:18:50;;;;;;;;;;;20.10;88.10;;;;;;5071668;28;19924;-66
2022/09/24 00:21:20;;;;;;;;;;;20.20;88.20;;;;;;5072209;28;19947;-66
2022/09/24 00:23:49;;;;;;;;;;;20.10;88.20;;;;;;5072704;28;19925;-67
2022/09/24 00:28:58;;;;;;;;;;;20.20;88.30;;;;;;5074555;28;20351;-67
2022/09/24 00:31:24;;;;;;;;;;;20.00;88.20;;;;;;5070114;28;20011;-67
2022/09/24 00:33:51;;;;;;;;;;;20.40;88.40;;;;;;5073501;28;19924;-68
2022/09/24 00:36:16;;;;;;;;;;;20.00;88.10;;;;;;5058858;28;20004;-66
2022/09/24 00:38:42;;;;;;;;;;;20.20;88.00;;;;;;5060395;28;19928;-67
2022/09/24 00:41:08;;;;;;;;;;;20.20;88.10;;;;;;5056934;28;19954;-69
2022/09/24 00:43:35;;;;;;;;;;;20.30;88.10;;;;;;5063534;28;20382;-67
2022/09/24 00:46:10;;;;;;;;;;;20.30;88.10;;;;;;5068916;28;19925;-67
2022/09/24 00:48:36;;;;;;;;;;;20.30;88.30;;;;;;5056176;28;19924;-66
2022/09/24 00:51:02;;;;;;;;;;;;;;;;;;5071746;28;19928;-67
2022/09/24 00:53:31;;;;;;;;;;;20.30;88.30;;;;;;5072360;28;19931;-66
2022/09/24 00:55:57;;;;;;;;;;;;;;;;;;5070361;28;19928;-64
2022/09/24 00:58:23;;;;;;;;;;;20.20;88.20;;;;;;5054904;28;19932;-67
2022/09/24 01:00:49;;;;;;;;;;;20.10;88.30;;;;;;5054144;28;20019;-66
2022/09/24 01:03:16;;;;;;;;;;;20.20;88.20;;;;;;5054079;28;20397;-65
2022/09/24 01:05:41;;;;;;;;;;;20.10;88.20;;;;;;5060472;28;19924;-66
2022/09/24 01:08:07;;;;;;;;;;;;;;;;;;5067766;28;19928;-67
2022/09/24 01:10:52;;;;;;;;;;;20.50;88.40;;;;;;5056782;28;20063;-67
2022/09/24 01:13:25;;;;;;;;;;;20.20;88.30;;;;;;5070798;28;20355;-67
2022/09/24 01:16:11;;;;;;;;;;;20.10;88.20;;;;;;5071140;28;19921;-67
2022/09/24 01:18:39;;;;;;;;;;;20.40;88.40;;;;;;5050579;28;20012;-67
2022/09/24 01:21:24;;;;;;;;;;;20.20;88.30;;;;;;5088224;28;19966;-66
2022/09/24 01:24:06;;;;;;;;;;;20.40;88.40;;;;;;5065853;28;20405;-68
2022/09/24 01:26:50;;;;;;;;;;;20.10;88.20;;;;;;5060780;28;20023;-67
2022/09/24 01:29:22;;;;;;;;;;;19.90;88.20;;;;;;5053657;28;19925;-67
2022/09/24 01:31:49;;;;;;;;;;;20.20;88.40;;;;;;5065180;28;20297;-65
2022/09/24 01:34:16;;;;;;;;;;;20.30;88.50;;;;;;5069178;28;20329;-67
2022/09/24 01:36:42;;;;;;;;;;;20.10;88.30;;;;;;5071669;28;19985;-67
2022/09/24 01:39:08;;;;;;;;;;;20.10;88.20;;;;;;5051739;28;19928;-66
2022/09/24 01:41:34;;;;;;;;;;;20.20;88.40;;;;;;5069178;28;19978;-64
2022/09/24 01:44:00;;;;;;;;;;;;;;;;;;5066650;28;20290;-69
2022/09/24 01:46:26;;;;;;;;;;;20.10;88.40;;;;;;5068747;28;20285;-67
2022/09/24 01:48:52;;;;;;;;;;;20.20;88.50;;;;;;5072126;28;19928;-66
2022/09/24 01:51:18;;;;;;;;;;;;;;;;;;5062928;28;19987;-67
2022/09/24 01:53:45;;;;;;;;;;;20.00;88.40;;;;;;5071187;28;19925;-66
2022/09/24 01:56:14;;;;;;;;;;;20.30;88.60;;;;;;5070337;28;20298;-67
2022/09/24 01:58:54;;;;;;;;;;;20.20;88.60;;;;;;5073343;28;19948;-66
2022/09/24 02:01:46;;;;;;;;;;;20.40;88.80;;;;;;5069397;28;20374;-67
2022/09/24 02:04:15;;;;;;;;;;;20.40;88.70;;;;;;5060502;28;19977;-68
2022/09/24 02:06:46;;;;;;;;;;;20.20;88.70;;;;;;5069651;28;19925;-67
2022/09/24 02:09:31;;;;;;;;;;;19.90;88.50;;;;;;5073390;28;19963;-63
2022/09/24 02:12:02;;;;;;;;;;;20.30;88.70;;;;;;5059389;28;20389;-67
2022/09/24 02:14:28;;;;;;;;;;;20.20;88.60;;;;;;5088125;28;19933;-65
2022/09/24 02:16:53;;;;;;;;;;;20.20;88.70;;;;;;5068058;28;19947;-66
2022/09/24 02:19:21;;;;;;;;;;;20.30;88.80;;;;;;5070848;28;20365;-67
2022/09/24 02:21:46;;;;;;;;;;;20.30;88.70;;;;;;5065971;28;19955;-63
2022/09/24 02:24:13;;;;;;;;;;;19.90;88.50;;;;;;5087159;28;19925;-63
2022/09/24 02:26:39;;;;;;;;;;;20.30;88.80;;;;;;5073663;28;19924;-63
2022/09/24 02:29:04;;;;;;;;;;;20.20;88.70;;;;;;5072214;28;19931;-67
2022/09/24 02:31:31;;;;;;;;;;;20.30;88.80;;;;;;5071803;28;19928;-64
2022/09/24 02:36:42;;;;;;;;;;;20.10;88.80;;;;;;5074181;28;20298;-67
2022/09/24 02:39:07;;;;;;;;;;;20.10;88.80;;;;;;5067692;28;19924;-66
2022/09/24 02:41:33;;;;;;;;;;;20.20;88.80;;;;;;5063889;28;19932;-68
2022/09/24 02:43:58;;;;;;;;;;;20.10;88.80;;;;;;5060555;28;20011;-68
2022/09/24 02:46:24;;;;;;;;;;;20.30;88.90;;;;;;5076160;28;19920;-67
2022/09/24 02:48:50;;;;;;;;;;;20.30;88.90;;;;;;5075447;28;19925;-68
2022/09/24 02:51:15;;;;;;;;;;;20.10;88.90;;;;;;5076562;28;19924;-68
2022/09/24 02:53:41;;;;;;;;;;;20.20;88.90;;;;;;5071155;28;20405;-68
2022/09/24 02:56:06;;;;;;;;;;;20.10;88.90;;;;;;5073866;28;19983;-67
2022/09/24 02:58:32;;;;;;;;;;;20.00;88.90;;;;;;5076442;28;19932;-68
2022/09/24 03:00:58;;;;;;;;;;;20.10;89.00;;;;;;5075408;28;19925;-68
2022/09/24 03:03:23;;;;;;;;;;;20.10;88.90;;;;;;5072108;28;19924;-61
2022/09/24 03:05:51;;;;;;;;;;;20.10;88.90;;;;;;5070592;28;19925;-61
2022/09/24 03:08:18;;;;;;;;;;;20.00;88.90;;;;;;5076105;28;19929;-67
2022/09/24 03:10:43;;;;;;;;;;;20.10;89.00;;;;;;5068371;28;19940;-67
2022/09/24 03:13:10;;;;;;;;;;;20.20;89.10;;;;;;5054958;28;19925;-63
2022/09/24 03:15:35;;;;;;;;;;;20.30;89.10;;;;;;5057231;28;19931;-65
2022/09/24 03:18:02;;;;;;;;;;;20.30;89.20;;;;;;5073623;28;19928;-62
2022/09/24 03:20:27;;;;;;;;;;;20.10;89.10;;;;;;5076034;28;19928;-62
2022/09/24 03:22:53;;;;;;;;;;;20.20;89.20;;;;;;5073691;28;20275;-61
2022/09/24 03:25:19;;;;;;;;;;;20.10;89.00;;;;;;5070797;28;20019;-67
2022/09/24 03:27:45;;;;;;;;;;;20.30;89.20;;;;;;5065314;28;19970;-67
2022/09/24 03:32:55;;;;;;;;;;;20.10;89.20;;;;;;5058784;28;20416;-68
2022/09/24 03:35:20;;;;;;;;;;;20.00;89.10;;;;;;5075748;28;19924;-68
2022/09/24 03:37:46;;;;;;;;;;;20.50;89.40;;;;;;5069553;28;19925;-68
2022/09/24 03:40:12;;;;;;;;;;;20.20;89.30;;;;;;5074348;28;19924;-67
2022/09/24 03:42:37;;;;;;;;;;;20.10;89.30;;;;;;5071045;28;19928;-67
2022/09/24 03:45:03;;;;;;;;;;;20.10;89.20;;;;;;5074642;28;19928;-67
2022/09/24 03:47:29;;;;;;;;;;;20.20;89.20;;;;;;5061211;28;19959;-68
2022/09/24 03:49:55;;;;;;;;;;;20.30;89.40;;;;;;5074534;28;19924;-67
2022/09/24 03:52:21;;;;;;;;;;;;;;;;;;5056321;28;19921;-68
2022/09/24 03:54:47;;;;;;;;;;;20.10;89.40;;;;;;5058194;28;20410;-67
2022/09/24 03:57:13;;;;;;;;;;;20.30;89.40;;;;;;5067411;28;19931;-67
2022/09/24 03:59:39;;;;;;;;;;;20.20;89.30;;;;;;5067154;28;19927;-63
2022/09/24 04:02:05;;;;;;;;;;;20.10;89.40;;;;;;5075027;28;20329;-67
2022/09/24 04:04:31;;;;;;;;;;;20.20;89.40;;;;;;5073125;28;19924;-68
2022/09/24 04:06:57;;;;;;;;;;;19.60;89.10;;;;;;5072859;28;19973;-68
2022/09/24 04:09:22;;;;;;;;;;;20.20;89.40;;;;;;5064272;28;19924;-67
2022/09/24 04:11:51;;;;;;;;;;;;;;;;;;5071758;28;20375;-66
2022/09/24 04:14:17;;;;;;;;;;;20.30;89.50;;;;;;5059100;28;19935;-68
2022/09/24 04:16:43;;;;;;;;;;;20.30;89.60;;;;;;5057298;28;19928;-67
2022/09/24 04:19:08;;;;;;;;;;;20.40;89.60;;;;;;5060028;28;19925;-68
2022/09/24 04:21:34;;;;;;;;;;;20.30;89.60;;;;;;5071112;28;20298;-67
2022/09/24 04:24:00;;;;;;;;;;;19.80;89.30;;;;;;5073031;28;19998;-67
2022/09/24 04:26:25;;;;;;;;;;;20.10;89.50;;;;;;5073548;28;19978;-67
2022/09/24 04:28:51;;;;;;;;;;;;;;;;;;5057851;28;19975;-67
2022/09/24 04:31:17;;;;;;;;;;;20.10;89.50;;;;;;5064680;28;19947;-67
2022/09/24 04:33:42;;;;;;;;;;;20.10;89.60;;;;;;5073735;28;19967;-67
2022/09/24 04:36:08;;;;;;;;;;;19.90;89.50;;;;;;5073529;28;20398;-69
2022/09/24 04:38:34;;;;;;;;;;;20.30;89.70;;;;;;5072680;28;19925;-68
2022/09/24 04:41:06;;;;;;;;;;;20.20;89.60;;;;;;5069693;28;20002;-68
2022/09/24 04:43:32;;;;;;;;;;;20.20;89.70;;;;;;5059988;28;20027;-68
2022/09/24 04:45:58;;;;;;;;;;;20.00;89.80;;;;;;5053995;28;19929;-68
2022/09/24 04:48:24;;;;;;;;;;;20.00;89.80;;;;;;5068740;28;19925;-69
2022/09/24 04:50:49;;;;;;;;;;;20.30;89.90;;;;;;5071857;28;19924;-68
2022/09/24 04:53:16;;;;;;;;;;;20.30;90.00;;;;;;5068566;28;19920;-69
2022/09/24 04:55:41;;;;;;;;;;;20.50;90.00;;;;;;5060102;28;19925;-68
2022/09/24 04:58:07;;;;;;;;;;;20.10;89.90;;;;;;5053929;28;19935;-68
2022/09/24 05:00:33;;;;;;;;;;;20.10;89.80;;;;;;5058060;28;19979;-67
2022/09/24 05:02:59;;;;;;;;;;;20.40;90.00;;;;;;5054595;28;19924;-69
2022/09/24 05:05:25;;;;;;;;;;;20.00;89.90;;;;;;5072121;28;19925;-68
2022/09/24 05:07:51;;;;;;;;;;;20.20;90.00;;;;;;5074570;28;19924;-68
2022/09/24 05:10:17;;;;;;;;;;;20.20;90.00;;;;;;5069289;28;19982;-68
2022/09/24 05:12:43;;;;;;;;;;;20.10;89.80;;;;;;5065211;28;19932;-68
2022/09/24 05:15:08;;;;;;;;;;;20.00;89.90;;;;;;5057199;28;19967;-67
2022/09/24 05:17:34;;;;;;;;;;;;;;;;;;5052352;28;19921;-69
2022/09/24 05:20:00;;;;;;;;;;;;;;;;;;5053515;28;19928;-67
2022/09/24 05:22:26;;;;;;;;;;;20.20;90.00;;;;;;5064225;28;19993;-63
2022/09/24 05:24:53;;;;;;;;;;;20.20;90.00;;;;;;5069928;28;19928;-62
2022/09/24 05:27:20;;;;;;;;;;;20.30;90.00;;;;;;5070076;28;19928;-62
2022/09/24 05:29:46;;;;;;;;;;;20.20;90.00;;;;;;5072583;28;19932;-63
2022/09/24 05:32:12;;;;;;;;;;;20.10;90.00;;;;;;5063820;28;19925;-62
2022/09/24 05:34:40;;;;;;;;;;;20.40;90.10;;;;;;5069993;28;20635;-63
2022/09/24 05:37:05;;;;;;;;;;;20.30;90.00;;;;;;5069637;28;20378;-63
2022/09/24 05:39:31;;;;;;;;;;;20.30;90.10;;;;;;5069915;28;19932;-62
2022/09/24 05:41:57;;;;;;;;;;;20.30;90.10;;;;;;5069073;28;20394;-68
2022/09/24 05:44:22;;;;;;;;;;;20.30;90.00;;;;;;5065788;28;19924;-61
2022/09/24 05:46:49;;;;;;;;;;;;;;;;;;5069931;28;20038;-64
2022/09/24 05:49:14;;;;;;;;;;;20.00;90.00;;;;;;5071903;28;19924;-61
2022/09/24 05:51:40;;;;;;;;;;;20.30;90.00;;;;;;5070410;28;19930;-62
2022/09/24 05:54:06;;;;;;;;;;;20.10;90.00;;;;;;5069636;28;19921;-63
2022/09/24 05:56:31;;;;;;;;;;;20.40;90.10;;;;;;5067338;28;20274;-62
2022/09/24 05:58:57;;;;;;;;;;;20.40;90.10;;;;;;5072433;28;20275;-62
2022/09/24 06:01:23;;;;;;;;;;;20.30;90.10;;;;;;5067332;28;19934;-62
2022/09/24 06:03:49;;;;;;;;;;;;;;;;;;5069418;28;20003;-71
2022/09/24 06:06:15;;;;;;;;;;;20.40;90.10;;;;;;5070240;28;19978;-74
2022/09/24 06:08:41;;;;;;;;;;;20.50;90.10;;;;;;5069986;28;19924;-62
2022/09/24 06:11:11;;;;;;;;;;;20.40;90.10;;;;;;5070581;28;20340;-62
2022/09/24 06:13:38;;;;;;;;;;;;;;;;;;5073411;28;20515;-62
2022/09/24 06:16:10;;;;;;;;;;;20.50;90.10;;;;;;5071872;28;19924;-63
2022/09/24 06:18:38;;;;;;;;;;;20.40;90.10;;;;;;5071127;28;19921;-62
2022/09/24 06:21:06;;;;;;;;;;;20.40;90.00;;;;;;5069680;28;20271;-62
2022/09/24 06:23:32;;;;;;;;;;;20.30;90.10;;;;;;5074226;28;19978;-63
2022/09/24 06:25:58;;;;;;;;;;;20.30;90.10;;;;;;5073964;28;19975;-63
2022/09/24 06:28:26;;;;;;;;;;;20.20;90.10;;;;;;5075283;28;20021;-62
2022/09/24 06:30:52;;;;;;;;;;;20.40;89.50;;;;;;5073632;28;20301;-62
2022/09/24 06:33:19;;;;;;;;;;;20.20;90.10;;;;;;5070872;28;19928;-63
2022/09/24 06:35:45;;;;;;;;;;;20.40;90.10;;;;;;5069712;28;19994;-63
2022/09/24 06:38:12;;;;;;;;;;;20.50;90.10;;;;;;5072824;28;19932;-62
2022/09/24 06:40:39;;;;;;;;;;;20.30;90.00;;;;;;5059623;28;19924;-62
2022/09/24 06:43:07;;;;;;;;;;;20.40;90.10;;;;;;5075105;28;19924;-62
2022/09/24 06:45:33;;;;;;;;;;;20.50;90.10;;;;;;5072305;28;19925;-63
2022/09/24 06:48:00;;;;;;;;;;;;;;;;;;5058580;28;19931;-68
2022/09/24 06:50:26;;;;;;;;;;;20.50;90.10;;;;;;5056020;28;19932;-73
2022/09/24 06:52:52;;;;;;;;;;;20.30;90.10;;;;;;5075995;28;20002;-69
2022/09/24 06:55:18;;;;;;;;;;;20.40;90.10;;;;;;5072382;28;19920;-69
2022/09/24 06:57:44;;;;;;;;;;;20.50;90.20;;;;;;5076176;28;19925;-63
2022/09/24 07:00:11;;;;;;;;;;;20.50;90.20;;;;;;5074158;28;20393;-63
2022/09/24 07:02:36;;;;;;;;;;;20.60;90.30;;;;;;5064837;28;19925;-62
2022/09/24 07:05:02;;;;;;;;;;;20.50;90.30;;;;;;5073411;28;20226;-69
2022/09/24 07:07:28;;;;;;;;;;;;;;;;;;5072086;28;20022;-69
2022/09/24 07:10:04;;;;;;;;;;;20.50;90.40;;;;;;5056097;28;19925;-62
2022/09/24 07:12:30;;;;;;;;;;;20.50;90.40;;;;;;5054942;28;20500;-62
2022/09/24 07:14:56;;;;;;;;;;;20.50;90.40;;;;;;5055161;28;19925;-62
2022/09/24 07:17:25;;;;;;;;;;;20.40;90.40;;;;;;5054763;28;19924;-62
2022/09/24 07:19:50;;;;;;;;;;;20.40;90.40;;;;;;5069940;28;20294;-61
2022/09/24 07:22:16;;;;;;;;;;;20.30;90.40;;;;;;5054742;28;19929;-68
2022/09/24 07:24:42;;;;;;;;;;;20.40;90.40;;;;;;5056231;28;19971;-62
2022/09/24 07:27:08;;;;;;;;;;;20.50;90.50;;;;;;5074887;28;19925;-62
2022/09/24 07:29:33;;;;;;;;;;;20.40;90.40;;;;;;5074604;28;19928;-61
2022/09/24 07:31:59;;;;;;;;;;;20.70;90.50;;;;;;5074851;28;19925;-62
2022/09/24 07:34:25;;;;;;;;;;;20.30;90.40;;;;;;5074462;28;19928;-62
2022/09/24 07:36:51;;;;;;;;;;;20.30;90.40;;;;;;5073001;28;19925;-62
2022/09/24 07:39:17;;;;;;;;;;;20.60;90.40;;;;;;5074254;28;19929;-62
2022/09/24 07:41:43;;;;;;;;;;;20.40;90.40;;;;;;5074544;28;20290;-62
2022/09/24 07:44:08;;;;;;;;;;;20.40;90.40;;;;;;5074283;28;19932;-62
2022/09/24 07:46:34;;;;;;;;;;;20.30;90.40;;;;;;5074474;28;19924;-62
2022/09/24 07:49:00;;;;;;;;;;;20.40;90.40;;;;;;5074047;28;20278;-61
2022/09/24 07:51:26;;;;;;;;;;;;;;;;;;5074174;28;19955;-62
2022/09/24 07:53:52;;;;;;;;;;;20.50;90.40;;;;;;5074192;28;19924;-62
2022/09/24 07:56:18;;;;;;;;;;;20.40;90.50;;;;;;5073860;28;19920;-62
2022/09/24 07:58:47;;;;;;;;;;;20.50;90.50;;;;;;5074189;28;19924;-62
2022/09/24 08:01:13;;;;;;;;;;;20.50;90.50;;;;;;5074271;28;20290;-62
2022/09/24 08:03:39;;;;;;;;;;;20.20;90.40;;;;;;5073883;28;19931;-63
2022/09/24 08:06:05;;;;;;;;;;;20.50;90.50;;;;;;5074123;28;19928;-61
2022/09/24 08:08:31;;;;;;;;;;;20.60;90.50;;;;;;5073871;28;20400;-63
2022/09/24 08:10:56;;;;;;;;;;;20.50;90.50;;;;;;5074112;28;20679;-62
2022/09/24 08:13:22;;;;;;;;;;;20.50;90.60;;;;;;5073971;28;20350;-62
2022/09/24 08:15:54;;;;;;;;;;;20.60;90.60;;;;;;5072105;28;19928;-64
2022/09/24 08:18:20;;;;;;;;;;;20.50;90.50;;;;;;5072511;28;20297;-63
2022/09/24 08:20:45;;;;;;;;;;;20.80;90.60;;;;;;5073911;28;19921;-62
2022/09/24 08:23:11;;;;;;;;;;;20.70;90.40;;;;;;5073813;28;19974;-62
2022/09/24 08:25:37;;;;;;;;;;;21.10;90.50;;;;;;5073847;28;19925;-62
2022/09/24 08:28:06;;;;;;;;;;;21.00;90.30;;;;;;5072179;28;19987;-62
2022/09/24 08:30:32;;;;;;;;;;;21.10;90.20;;;;;;5072604;28;20386;-62
2022/09/24 08:32:58;;;;;;;;;;;21.00;90.10;;;;;;5073402;28;19924;-62
2022/09/24 08:35:24;;;;;;;;;;;21.30;90.10;;;;;;5073414;28;19932;-62
2022/09/24 08:37:52;;;;;;;;;;;21.20;90.00;;;;;;5073440;28;20366;-64
2022/09/24 08:40:19;;;;;;;;;;;21.30;89.90;;;;;;5072360;28;20263;-62
2022/09/24 08:42:49;;;;;;;;;;;21.40;89.90;;;;;;5055707;28;20328;-62
2022/09/24 08:48:05;;;;;;;;;;;21.40;89.70;;;;;;5057880;28;19928;-62
2022/09/24 08:50:32;;;;;;;;;;;21.40;89.60;;;;;;5072027;28;19929;-67
2022/09/24 08:53:00;;;;;;;;;;;21.20;89.40;;;;;;5072654;28;19920;-62
2022/09/24 08:55:39;;;;;;;;;;;21.70;88.70;;;;;;5073984;28;19924;-62
2022/09/24 08:58:21;;;;;;;;;;;21.60;89.60;;;;;;5054254;28;19924;-64
2022/09/24 09:00:55;;;;;;;;;;;21.70;89.90;;;;;;5054220;28;20365;-63
2022/09/24 09:03:20;;;;;;;;;;;21.60;88.70;;;;;;5053876;28;19928;-62
2022/09/24 09:06:12;;;;;;;;;;;21.40;89.60;;;;;;5054144;28;19979;-62
2022/09/24 09:08:49;;;;;;;;;;;21.80;89.70;;;;;;5049293;28;20025;-62
2022/09/24 09:11:15;;;;;;;;;;;21.50;89.50;;;;;;5074100;28;19925;-63
2022/09/24 09:13:42;;;;;;;;;;;21.60;89.60;;;;;;5072842;28;19947;-62
2022/09/24 09:16:20;;;;;;;;;;;21.60;89.80;;;;;;5072490;28;19947;-62
2022/09/24 09:18:46;;;;;;;;;;;21.70;89.70;;;;;;5073730;28;20370;-61
2022/09/24 09:21:13;;;;;;;;;;;21.40;89.60;;;;;;5072894;28;19924;-62
2022/09/24 09:23:46;;;;;;;;;;;21.30;89.60;;;;;;5072680;28;19925;-63
2022/09/24 09:26:12;;;;;;;;;;;21.80;89.90;;;;;;5072814;28;19924;-63
2022/09/24 09:28:38;;;;;;;;;;;22.20;90.00;;;;;;5073564;28;20297;-62
2022/09/24 09:31:05;;;;;;;;;;;21.30;89.70;;;;;;5074232;28;19929;-62
2022/09/24 09:34:03;;;;;;;;;;;21.50;90.00;;;;;;5073926;28;20341;-61
2022/09/24 09:36:29;;;;;;;;;;;21.40;89.70;;;;;;5012002;28;20371;-62
2022/09/24 09:39:13;;;;;;;;;;;21.40;89.70;;;;;;5011631;28;19921;-62
2022/09/24 09:41:45;;;;;;;;;;;21.30;89.60;;;;;;5007705;28;19926;-62
2022/09/24 09:44:37;;;;;;;;;;;21.40;89.70;;;;;;5015779;28;19968;-62
2022/09/24 09:47:05;;;;;;;;;;;21.10;88.70;;;;;;5013046;28;19925;-62
2022/09/24 09:49:33;;;;;;;;;;;21.40;89.80;;;;;;4999399;28;20422;-62
2022/09/24 09:51:59;;;;;;;;;;;21.50;89.90;;;;;;4999227;28;19933;-62
2022/09/24 09:54:43;;;;;;;;;;;21.40;89.80;;;;;;4999306;28;19926;-62
2022/09/24 09:57:13;;;;;;;;;;;21.30;89.80;;;;;;5015516;28;19926;-62
2022/09/24 09:59:38;;;;;;;;;;;21.30;89.80;;;;;;5015404;28;20294;-62
2022/09/24 10:02:08;;;;;;;;;;;21.20;89.80;;;;;;4999075;28;19925;-62
2022/09/24 10:04:34;;;;;;;;;;;21.20;89.80;;;;;;5015281;28;19925;-62
2022/09/24 10:07:04;;;;;;;;;;;21.60;90.00;;;;;;5015406;28;19933;-62
2022/09/24 10:09:29;;;;;;;;;;;21.20;89.80;;;;;;4998791;28;19932;-62
2022/09/24 10:12:04;;;;;;;;;;;21.10;89.80;;;;;;5033920;28;19925;-62
2022/09/24 10:14:30;;;;;;;;;;;21.00;89.70;;;;;;5056073;28;19970;-62
2022/09/24 10:16:56;;;;;;;;;;;21.40;90.00;;;;;;5058230;28;20389;-62
2022/09/24 10:19:22;;;;;;;;;;;21.10;89.90;;;;;;5075887;28;19921;-62
2022/09/24 10:21:48;;;;;;;;;;;21.40;90.00;;;;;;5075960;28;19956;-62
2022/09/24 10:24:18;;;;;;;;;;;21.40;90.00;;;;;;5077133;28;19967;-62
2022/09/24 10:26:43;;;;;;;;;;;21.10;90.00;;;;;;5077027;28;19921;-62
2022/09/24 10:32:01;;;;;;;;;;;21.30;90.10;;;;;;5075514;28;20371;-62
2022/09/24 10:34:27;;;;;;;;;;;21.10;90.10;;;;;;5076898;28;20370;-62
2022/09/24 10:37:03;;;;;;;;;;;21.20;90.10;;;;;;5074300;28;19932;-69
2022/09/24 10:39:29;;;;;;;;;;;21.30;90.10;;;;;;5067939;28;19931;-62
2022/09/24 10:41:58;;;;;;;;;;;21.20;90.20;;;;;;5063263;28;19924;-68
2022/09/24 10:44:27;;;;;;;;;;;21.10;90.20;;;;;;5076374;28;19931;-61
2022/09/24 10:47:07;;;;;;;;;;;21.20;90.40;;;;;;5074291;28;20336;-62
2022/09/24 10:49:35;;;;;;;;;;;21.10;90.20;;;;;;5071338;28;19925;-61
2022/09/24 10:52:01;;;;;;;;;;;20.80;90.10;;;;;;5069770;28;20313;-75
2022/09/24 10:54:40;;;;;;;;;;;21.30;90.30;;;;;;5071974;28;19932;-75
2022/09/24 10:57:07;;;;;;;;;;;;;;;;;;5067557;28;19929;-73
2022/09/24 10:59:38;;;;;;;;;;;21.30;90.20;;;;;;5068637;28;19924;-72
2022/09/24 11:02:13;;;;;;;;;;;21.10;90.20;;;;;;5065482;28;19932;-73
2022/09/24 11:05:05;;;;;;;;;;;21.00;90.20;;;;;;5071175;28;19924;-75
2022/09/24 11:07:40;;;;;;;;;;;21.20;90.20;;;;;;5045305;28;19993;-68
2022/09/24 11:10:10;;;;;;;;;;;21.20;90.20;;;;;;5070816;28;20420;-73
2022/09/24 11:12:42;;;;;;;;;;;21.20;90.10;;;;;;5070065;28;19932;-73
2022/09/24 11:15:27;;;;;;;;;;;21.10;90.20;;;;;;5069656;28;19925;-67
2022/09/24 11:18:11;;;;;;;;;;;21.10;90.20;;;;;;5068404;28;20408;-68
2022/09/24 11:20:38;;;;;;;;;;;21.10;90.20;;;;;;5070685;28;19932;-62
2022/09/24 11:23:22;;;;;;;;;;;21.10;90.40;;;;;;5069353;28;19931;-67
2022/09/24 11:25:58;;;;;;;;;;;20.70;90.20;;;;;;5067701;28;19928;-66
2022/09/24 11:28:23;;;;;;;;;;;20.90;90.20;;;;;;5069190;28;19939;-69
2022/09/24 11:30:55;;;;;;;;;;;21.20;90.40;;;;;;5070533;28;19928;-67
2022/09/24 11:33:27;;;;;;;;;;;21.00;90.30;;;;;;5066616;28;19974;-74
2022/09/24 11:35:53;;;;;;;;;;;21.30;90.40;;;;;;5068091;28;19928;-68
2022/09/24 11:38:37;;;;;;;;;;;20.90;90.30;;;;;;5069809;28;19955;-70
2022/09/24 11:41:10;;;;;;;;;;;20.90;90.30;;;;;;5070740;28;19924;-69
2022/09/24 11:43:40;;;;;;;;;;;21.30;90.40;;;;;;5067279;28;19928;-66
2022/09/24 11:46:09;;;;;;;;;;;21.00;90.40;;;;;;5069173;28;19928;-70
2022/09/24 11:48:35;;;;;;;;;;;21.20;90.40;;;;;;5071711;28;19924;-67
2022/09/24 11:51:00;;;;;;;;;;;21.00;90.40;;;;;;5071702;28;19986;-74
2022/09/24 11:53:45;;;;;;;;;;;21.20;90.50;;;;;;5068314;28;19934;-67
2022/09/24 11:56:10;;;;;;;;;;;21.20;90.20;;;;;;5070137;28;20052;-74
2022/09/24 11:58:47;;;;;;;;;;;21.10;90.50;;;;;;5068543;28;20539;-72
2022/09/24 12:01:16;;;;;;;;;;;21.20;90.50;;;;;;5068032;28;20011;-68
2022/09/24 12:03:41;;;;;;;;;;;21.10;90.40;;;;;;5070773;28;19924;-75
2022/09/24 12:06:18;;;;;;;;;;;21.40;90.50;;;;;;5068945;28;19935;-71
2022/09/24 12:08:54;;;;;;;;;;;21.10;90.40;;;;;;5066193;28;20297;-72
2022/09/24 12:11:30;;;;;;;;;;;21.20;90.40;;;;;;5067062;28;20209;-69
2022/09/24 12:13:58;;;;;;;;;;;21.10;90.40;;;;;;5054158;28;19972;-74
2022/09/24 12:16:28;;;;;;;;;;;21.20;90.40;;;;;;5065930;28;19990;-75
2022/09/24 12:18:55;;;;;;;;;;;21.40;90.50;;;;;;5069039;28;20325;-72
2022/09/24 12:21:21;;;;;;;;;;;;;;;;;;5064312;28;19955;-72
2022/09/24 12:23:46;;;;;;;;;;;21.10;90.50;;;;;;5065642;28;19932;-69
2022/09/24 12:26:15;;;;;;;;;;;21.10;90.50;;;;;;5059042;28;20553;-78
2022/09/24 12:34:27;;;;;;;;;;;20.90;90.50;;;;;;5063721;28;19947;-66
2022/09/24 12:36:55;;;;;;;;;;;21.10;90.60;;;;;;5060171;28;20295;-76
2022/09/24 12:39:21;;;;;;;;;;;21.00;90.60;;;;;;5061553;28;19925;-74
2022/09/24 12:41:48;;;;;;;;;;;21.40;90.70;;;;;;5059103;28;19936;-79
2022/09/24 12:44:18;;;;;;;;;;;21.10;90.50;;;;;;5058847;28;19929;-73
2022/09/24 12:46:48;;;;;;;;;;;20.90;90.60;;;;;;5060073;28;20053;-73
2022/09/24 12:49:25;;;;;;;;;;;21.30;90.70;;;;;;5057433;28;20015;-73
2022/09/24 12:51:55;;;;;;;;;;;21.00;90.60;;;;;;5061247;28;19975;-76
2022/09/24 12:54:26;;;;;;;;;;;20.90;90.60;;;;;;5040902;28;19924;-69
2022/09/24 12:56:52;;;;;;;;;;;21.10;90.60;;;;;;5062058;28;19925;-68
2022/09/24 12:59:27;;;;;;;;;;;21.10;90.70;;;;;;5064775;28;20286;-68
2022/09/24 13:01:53;;;;;;;;;;;21.00;90.70;;;;;;5058208;28;19966;-69
2022/09/24 13:04:18;;;;;;;;;;;21.10;90.70;;;;;;5060175;28;20047;-65
2022/09/24 13:06:46;;;;;;;;;;;21.00;90.70;;;;;;5069320;28;19970;-67
2022/09/24 13:09:32;;;;;;;;;;;21.10;90.70;;;;;;5071548;28;19925;-69
2022/09/24 13:12:19;;;;;;;;;;;20.90;90.70;;;;;;5063295;28;19928;-68
2022/09/24 13:14:48;;;;;;;;;;;20.90;90.70;;;;;;5069954;28;19931;-65
2022/09/24 13:17:14;;;;;;;;;;;;;;;;;;5069753;28;19924;-69
2022/09/24 13:19:43;;;;;;;;;;;21.00;90.70;;;;;;5069658;28;20011;-71
2022/09/24 13:22:24;;;;;;;;;;;21.00;90.70;;;;;;5063407;28;19979;-71
2022/09/24 13:24:50;;;;;;;;;;;20.90;90.70;;;;;;5071204;28;19928;-71
2022/09/24 13:27:20;;;;;;;;;;;20.80;90.70;;;;;;5069508;28;19944;-75
2022/09/24 13:29:46;;;;;;;;;;;20.90;90.70;;;;;;5067112;28;19929;-61
2022/09/24 13:32:14;;;;;;;;;;;20.90;90.70;;;;;;5070276;28;19947;-63
2022/09/24 13:34:40;;;;;;;;;;;20.80;90.70;;;;;;5068073;28;19928;-62
2022/09/24 13:37:20;;;;;;;;;;;20.80;90.70;;;;;;5064067;28;19931;-62
2022/09/24 13:39:49;;;;;;;;;;;21.00;90.70;;;;;;5066237;28;20302;-62
2022/09/24 13:42:33;;;;;;;;;;;21.00;90.70;;;;;;5063466;28;19928;-62
2022/09/24 13:44:59;;;;;;;;;;;20.60;90.60;;;;;;5058164;28;20451;-65
2022/09/24 13:47:25;;;;;;;;;;;20.90;90.70;;;;;;5069497;28;20298;-63
2022/09/24 13:49:51;;;;;;;;;;;20.90;90.70;;;;;;5070656;28;19924;-63
2022/09/24 13:52:16;;;;;;;;;;;20.80;90.60;;;;;;5068019;28;19974;-65
2022/09/24 13:54:47;;;;;;;;;;;20.90;90.70;;;;;;5068871;28;20414;-68
2022/09/24 13:57:15;;;;;;;;;;;21.20;90.80;;;;;;5069811;28;19978;-64
2022/09/24 13:59:40;;;;;;;;;;;20.90;90.70;;;;;;5066353;28;19928;-62
2022/09/24 14:02:38;;;;;;;;;;;20.80;90.70;;;;;;5069527;28;20440;-63
2022/09/24 14:05:06;;;;;;;;;;;20.90;90.70;;;;;;5005844;28;20403;-64
2022/09/24 14:07:32;;;;;;;;;;;20.90;90.70;;;;;;4995712;28;20009;-65
2022/09/24 14:10:05;;;;;;;;;;;20.70;90.60;;;;;;5007503;28;20497;-63
2022/09/24 14:12:30;;;;;;;;;;;20.90;90.70;;;;;;5002497;28;20440;-63
2022/09/24 14:14:56;;;;;;;;;;;20.70;90.60;;;;;;5005711;28;19929;-63
2022/09/24 14:17:22;;;;;;;;;;;21.00;90.70;;;;;;5006986;28;19936;-70
2022/09/24 14:19:49;;;;;;;;;;;20.90;90.70;;;;;;5007179;28;19933;-68
2022/09/24 14:22:19;;;;;;;;;;;20.90;90.60;;;;;;5006287;28;19972;-67
2022/09/24 14:25:08;;;;;;;;;;;20.70;90.60;;;;;;4989776;28;19929;-68
2022/09/24 14:27:35;;;;;;;;;;;20.90;90.60;;;;;;4999389;28;19929;-67
2022/09/24 14:30:02;;;;;;;;;;;20.90;90.60;;;;;;5009839;28;19929;-69
2022/09/24 14:32:28;;;;;;;;;;;;;;;;;;5010573;28;19933;-68
2022/09/24 14:35:02;;;;;;;;;;;20.80;90.20;;;;;;5010024;28;19936;-68
2022/09/24 14:37:30;;;;;;;;;;;20.90;90.60;;;;;;4990279;28;19937;-73
2022/09/24 14:40:00;;;;;;;;;;;20.80;90.60;;;;;;5021928;28;20027;-68
2022/09/24 14:42:30;;;;;;;;;;;20.90;90.60;;;;;;5069919;28;19928;-69
2022/09/24 14:44:56;;;;;;;;;;;20.90;90.50;;;;;;5070330;28;19925;-66
2022/09/24 14:47:26;;;;;;;;;;;20.70;90.50;;;;;;5066171;28;20409;-70
2022/09/24 14:49:51;;;;;;;;;;;20.80;90.60;;;;;;5068354;28;19928;-67
2022/09/24 14:52:26;;;;;;;;;;;20.70;90.50;;;;;;5071653;28;19924;-66